首页
METAR-TAF:

METAR-TAF

机场 :

莫洛尼, 葛摩

赛义德·易卜拉欣王子国际机场

纬度: 11-32S, 经度: 043-16E, 海拔: 29米

当前天气观测

该预报发布于1小时和0分钟前的21:00 UTC
风速3节,风向东转东北
温度 25°C
湿度 89%
气压 1010 hPa
能见度10公里或以上
少量云层高于2000英尺

METAR: FMCH 172100Z 07003KT 9999 FEW020 25/23 Q1010 NOSIG

时间: 01:00 (22:00 UTC)

预报

该预报发布于5小时和0分钟前的17:00 UTC
预报有效从17日的 18点(UTC)到 18日的 24点(UTC)
风速3节,风向东转东北
能见度10公里或以上
少量云层高于2000英尺
几率 30% :
短暂存在
从 17日的 23点(UTC)到 18日的 07点(UTC)
能見度: 4000
少量云层高于1800英尺, 积雨云.
多云层高于2500英尺
雷暴, 阵雨
成为
从 18日的 06点(UTC)到 18日的 08点(UTC)
风速15节,风向西北,有时为25节阵风
几率 30% :
短暂存在
从 18日的 08点(UTC)到 18日的 16点(UTC)
能見度: 4000
少量云层高于2000英尺, 积雨云.
多云层高于2500英尺
阵雨

TAF: FMCH 171700Z 1718/1824 07003KT 9999 FEW020 PROB30 TEMPO 1723/1807 4000 TS SHRA FEW018CB BKN025 BECMG 1806/1808 32015G25KT PROB30 TEMPO 1808/1816 4000 SHRA FEW020CB BKN025

超过4000个机场的气象观测和天气预报(METAR&TAF报告)。

可查询的气象台以黄色和红色小点在地图上表示。

将鼠标移到小点上方,可查看气象台名称。

然后点击查看天气观测和预报。

如需切换地图:点击带黑十字的绿色按钮放大地图;点击带横线的绿色按钮缩小地图;或者点击绿色箭头查看邻近地区的地图。


METAR-TAF: